createdAt,value
2022-07-30T00:01:47.074Z,19.60
2022-07-30T00:04:14.126Z,19.60
2022-07-30T00:06:41.150Z,19.50
2022-07-30T00:09:08.199Z,19.50
2022-07-30T00:11:35.549Z,19.50
2022-07-30T00:14:02.702Z,19.50
2022-07-30T00:16:38.009Z,19.50
2022-07-30T00:19:05.086Z,19.50
2022-07-30T00:21:38.809Z,19.40
2022-07-30T00:24:08.753Z,19.40
2022-07-30T00:26:35.897Z,19.30
2022-07-30T00:29:03.086Z,19.30
2022-07-30T00:31:30.121Z,19.30
2022-07-30T00:33:57.348Z,19.30
2022-07-30T00:36:24.532Z,19.20
2022-07-30T00:38:51.517Z,19.20
2022-07-30T00:41:18.549Z,19.20
2022-07-30T00:43:45.540Z,19.20
2022-07-30T00:46:12.770Z,19.10
2022-07-30T00:48:39.870Z,19.10
2022-07-30T00:51:07.146Z,19.00
2022-07-30T00:53:35.124Z,19.10
2022-07-30T00:56:03.185Z,19.00
2022-07-30T00:58:30.313Z,18.90
2022-07-30T01:00:57.359Z,18.90
2022-07-30T01:03:24.670Z,18.80
2022-07-30T01:05:51.818Z,18.80
2022-07-30T01:08:18.894Z,18.80
2022-07-30T01:10:46.142Z,18.80
2022-07-30T01:13:13.297Z,18.80
2022-07-30T01:15:40.448Z,18.80
2022-07-30T01:18:11.686Z,18.70
2022-07-30T01:20:58.295Z,18.70
2022-07-30T01:23:43.231Z,18.70
2022-07-30T01:26:14.790Z,18.60
2022-07-30T01:28:46.065Z,18.60
2022-07-30T01:31:15.227Z,18.60
2022-07-30T01:33:45.657Z,18.50
2022-07-30T01:36:17.536Z,18.60
2022-07-30T01:38:46.349Z,18.60
2022-07-30T01:41:15.427Z,18.50
2022-07-30T01:43:43.548Z,18.40
2022-07-30T01:46:11.827Z,18.40
2022-07-30T01:48:41.365Z,18.30
2022-07-30T01:51:11.726Z,18.30
2022-07-30T01:53:41.823Z,18.30
2022-07-30T01:56:11.965Z,18.20
2022-07-30T01:58:40.674Z,18.20
2022-07-30T02:01:08.200Z,18.10
2022-07-30T02:03:36.068Z,18.10
2022-07-30T02:06:12.191Z,18.10
2022-07-30T02:08:45.817Z,18.10
2022-07-30T02:11:36.843Z,18.10
2022-07-30T02:14:12.417Z,18.10
2022-07-30T02:16:43.226Z,18.10
2022-07-30T02:19:16.147Z,18.10
2022-07-30T02:22:03.836Z,18.10
2022-07-30T02:24:36.748Z,18.00
2022-07-30T02:27:10.174Z,17.90
2022-07-30T02:29:38.592Z,17.90
2022-07-30T02:32:10.826Z,17.90
2022-07-30T02:34:40.651Z,17.90
2022-07-30T02:37:11.471Z,17.90
2022-07-30T02:39:39.825Z,17.80
2022-07-30T02:42:09.399Z,17.80
2022-07-30T02:44:38.803Z,17.80
2022-07-30T02:47:07.408Z,17.80
2022-07-30T02:49:35.995Z,17.80
2022-07-30T02:52:04.442Z,17.80
2022-07-30T02:54:32.496Z,17.70
2022-07-30T02:57:04.363Z,17.60
2022-07-30T02:59:33.565Z,17.50
2022-07-30T03:02:02.178Z,17.40
2022-07-30T03:04:31.507Z,17.30
2022-07-30T03:07:03.701Z,17.30
2022-07-30T03:09:50.695Z,17.20
2022-07-30T03:12:20.526Z,17.20
2022-07-30T03:14:47.700Z,17.20
2022-07-30T03:17:17.319Z,17.10
2022-07-30T03:19:46.306Z,17.00
2022-07-30T03:22:17.598Z,16.80
2022-07-30T03:24:45.822Z,16.80
2022-07-30T03:27:14.002Z,16.70
2022-07-30T03:29:43.093Z,16.60
2022-07-30T03:32:13.591Z,16.60
2022-07-30T03:34:43.865Z,16.60
2022-07-30T03:37:13.263Z,16.70
2022-07-30T03:39:41.715Z,16.70
2022-07-30T03:42:09.353Z,16.60
2022-07-30T03:44:38.046Z,16.60
2022-07-30T03:47:07.354Z,16.50
2022-07-30T03:49:34.603Z,16.50
2022-07-30T03:52:02.836Z,16.60
2022-07-30T03:54:33.485Z,16.50
2022-07-30T03:57:05.254Z,16.30
2022-07-30T03:59:33.214Z,16.20
2022-07-30T04:02:07.370Z,16.20
2022-07-30T04:04:34.780Z,16.20
2022-07-30T04:07:02.168Z,16.30
2022-07-30T04:09:29.329Z,16.30
2022-07-30T04:11:56.332Z,16.30
2022-07-30T04:14:23.406Z,16.30
2022-07-30T04:17:04.065Z,16.40
2022-07-30T04:19:46.769Z,16.40
2022-07-30T04:22:17.080Z,16.40
2022-07-30T04:24:45.780Z,16.40
2022-07-30T04:27:13.940Z,16.30
2022-07-30T04:29:41.626Z,16.40
2022-07-30T04:32:10.017Z,16.30
2022-07-30T04:34:37.052Z,16.20
2022-07-30T04:37:04.556Z,16.20
2022-07-30T04:39:31.757Z,16.30
2022-07-30T04:41:58.734Z,16.30
2022-07-30T04:44:25.729Z,16.40
2022-07-30T04:46:52.744Z,16.30
2022-07-30T04:49:21.518Z,16.30
2022-07-30T04:51:49.873Z,16.20
2022-07-30T04:54:18.320Z,16.20
2022-07-30T04:57:01.235Z,16.10
2022-07-30T04:59:28.693Z,16.00
2022-07-30T05:01:58.902Z,16.00
2022-07-30T05:04:28.465Z,16.10
2022-07-30T05:06:56.898Z,16.10
2022-07-30T05:09:24.628Z,16.10
2022-07-30T05:11:56.011Z,16.10
2022-07-30T05:14:24.523Z,16.00
2022-07-30T05:16:52.373Z,16.10
2022-07-30T05:19:21.149Z,16.20
2022-07-30T05:21:48.514Z,16.40
2022-07-30T05:24:15.555Z,16.50
2022-07-30T05:26:42.615Z,16.60
2022-07-30T05:29:09.762Z,16.70
2022-07-30T05:31:47.050Z,16.80
2022-07-30T05:34:14.207Z,16.90
2022-07-30T05:36:43.131Z,17.10
2022-07-30T05:39:10.138Z,17.20
2022-07-30T05:41:37.124Z,17.30
2022-07-30T05:44:04.397Z,17.30
2022-07-30T05:46:31.563Z,17.40
2022-07-30T05:48:58.780Z,17.50
2022-07-30T05:51:25.949Z,17.60
2022-07-30T05:53:53.013Z,17.70
2022-07-30T05:56:20.018Z,17.80
2022-07-30T05:58:47.150Z,17.80
2022-07-30T06:01:14.156Z,18.00
2022-07-30T06:03:41.262Z,18.10
2022-07-30T06:06:08.675Z,18.20
2022-07-30T06:08:36.203Z,18.30
2022-07-30T06:11:03.382Z,18.40
2022-07-30T06:13:30.494Z,18.40
2022-07-30T06:15:57.571Z,18.50
2022-07-30T06:18:24.588Z,18.60
2022-07-30T06:20:54.437Z,18.70
2022-07-30T06:23:22.226Z,18.80
2022-07-30T06:25:50.156Z,18.90
2022-07-30T06:28:36.894Z,19.00
2022-07-30T06:31:04.568Z,19.10
2022-07-30T06:33:32.018Z,19.30
2022-07-30T06:35:59.155Z,19.30
2022-07-30T06:38:26.156Z,19.40
2022-07-30T06:40:53.557Z,19.60
2022-07-30T06:43:21.493Z,19.70
2022-07-30T06:45:48.767Z,19.80
2022-07-30T06:48:16.203Z,19.90
2022-07-30T06:50:43.288Z,20.00
2022-07-30T06:53:10.346Z,20.00
2022-07-30T06:55:37.660Z,20.10
2022-07-30T06:58:04.711Z,20.10
2022-07-30T07:00:31.796Z,20.10
2022-07-30T07:02:58.870Z,20.10
2022-07-30T07:05:29.184Z,20.20
2022-07-30T07:07:59.620Z,20.30
2022-07-30T07:10:27.611Z,20.40
2022-07-30T07:12:55.384Z,20.40
2022-07-30T07:15:32.403Z,20.50
2022-07-30T07:18:05.156Z,20.60
2022-07-30T07:20:32.767Z,20.70
2022-07-30T07:23:00.293Z,20.80
2022-07-30T07:25:28.804Z,20.80
2022-07-30T07:28:11.660Z,20.90
2022-07-30T07:30:44.645Z,21.10
2022-07-30T07:33:13.338Z,21.20
2022-07-30T07:35:49.413Z,21.30
2022-07-30T07:38:18.732Z,21.30
2022-07-30T07:40:46.397Z,21.50
2022-07-30T07:43:14.750Z,21.60
2022-07-30T07:45:45.790Z,21.70
2022-07-30T07:48:13.105Z,21.60
2022-07-30T07:50:40.701Z,21.50
2022-07-30T07:53:07.727Z,21.50
2022-07-30T07:55:34.881Z,21.50
2022-07-30T07:58:02.336Z,21.50
2022-07-30T08:00:29.615Z,21.60
2022-07-30T08:02:56.605Z,21.60
2022-07-30T08:05:24.406Z,21.60
2022-07-30T08:07:51.452Z,21.70
2022-07-30T08:10:19.214Z,21.90
2022-07-30T08:12:46.238Z,21.90
2022-07-30T08:15:13.510Z,22.00
2022-07-30T08:17:42.402Z,21.90
2022-07-30T08:20:11.562Z,22.00
2022-07-30T08:22:38.638Z,22.30
2022-07-30T08:25:06.280Z,22.40
2022-07-30T08:27:33.726Z,22.30
2022-07-30T08:30:10.299Z,22.20
2022-07-30T08:32:37.715Z,22.30
2022-07-30T08:35:05.874Z,22.40
2022-07-30T08:37:34.540Z,22.40
2022-07-30T08:40:01.545Z,22.60
2022-07-30T08:42:29.024Z,22.70
2022-07-30T08:44:57.234Z,22.80
2022-07-30T08:47:34.559Z,22.90
2022-07-30T08:50:06.036Z,22.90
2022-07-30T08:52:36.810Z,23.00
2022-07-30T08:55:06.126Z,23.10
2022-07-30T08:57:35.478Z,23.20
2022-07-30T09:00:05.388Z,23.10
2022-07-30T09:02:32.663Z,23.10
2022-07-30T09:05:00.053Z,23.10
2022-07-30T09:07:27.377Z,23.00
2022-07-30T09:09:56.921Z,23.10
2022-07-30T09:12:39.525Z,23.10
2022-07-30T09:15:16.617Z,23.20
2022-07-30T09:17:51.307Z,23.20
2022-07-30T09:20:19.766Z,23.40
2022-07-30T09:22:49.159Z,23.50
2022-07-30T09:25:16.192Z,23.60
2022-07-30T09:27:48.862Z,23.60
2022-07-30T09:30:17.192Z,23.50
2022-07-30T09:32:49.844Z,23.50
2022-07-30T09:35:18.165Z,23.60
2022-07-30T09:37:46.392Z,23.80
2022-07-30T09:40:18.514Z,24.10
2022-07-30T09:42:45.608Z,24.30
2022-07-30T09:45:15.273Z,24.30
2022-07-30T09:47:48.561Z,24.30
2022-07-30T09:50:29.397Z,24.40
2022-07-30T09:53:07.710Z,24.70
2022-07-30T09:55:41.405Z,24.90
2022-07-30T09:58:12.901Z,25.10
2022-07-30T10:00:44.483Z,25.20
2022-07-30T10:03:34.215Z,25.40
2022-07-30T10:06:02.983Z,25.60
2022-07-30T10:08:39.393Z,25.70
2022-07-30T10:11:08.746Z,25.80
2022-07-30T10:13:37.476Z,26.00
2022-07-30T10:16:05.528Z,25.90
2022-07-30T10:18:35.469Z,25.90
2022-07-30T10:21:05.661Z,25.80
2022-07-30T10:23:33.550Z,25.90
2022-07-30T10:26:04.345Z,26.20
2022-07-30T10:28:35.833Z,26.20
2022-07-30T10:31:08.408Z,26.10
2022-07-30T10:33:53.485Z,26.20
2022-07-30T10:36:23.301Z,26.30
2022-07-30T10:38:52.928Z,26.30
2022-07-30T10:41:57.428Z,26.10
2022-07-30T10:44:52.328Z,26.10
2022-07-30T10:47:20.353Z,26.30
2022-07-30T10:50:07.803Z,26.50
2022-07-30T10:53:13.897Z,26.80
2022-07-30T10:55:40.951Z,26.90
2022-07-30T10:58:14.275Z,26.80
2022-07-30T11:00:54.688Z,26.90
2022-07-30T11:03:39.995Z,27.10
2022-07-30T11:06:24.561Z,27.00
2022-07-30T11:08:51.879Z,26.90
2022-07-30T11:11:28.714Z,26.80
2022-07-30T11:14:11.021Z,26.90
2022-07-30T11:16:39.698Z,27.00
2022-07-30T11:19:56.105Z,27.20
2022-07-30T11:22:29.782Z,27.40
2022-07-30T11:24:57.714Z,27.60
2022-07-30T11:27:49.138Z,27.60
2022-07-30T11:30:17.143Z,27.70
2022-07-30T11:32:54.814Z,27.70
2022-07-30T11:35:34.638Z,27.70
2022-07-30T11:38:13.156Z,27.80
2022-07-30T11:41:02.747Z,27.70
2022-07-30T11:43:34.673Z,27.50
2022-07-30T11:46:29.669Z,27.40
2022-07-30T11:49:08.842Z,27.40
2022-07-30T11:51:45.717Z,27.50
2022-07-30T11:54:13.030Z,27.70
2022-07-30T11:56:55.469Z,27.90
2022-07-30T11:59:22.901Z,27.80
2022-07-30T12:01:51.990Z,27.60
2022-07-30T12:04:20.044Z,27.50
2022-07-30T12:06:48.219Z,27.70
2022-07-30T12:09:29.264Z,27.90
2022-07-30T12:12:27.423Z,28.30
2022-07-30T12:14:55.004Z,28.60
2022-07-30T12:17:41.489Z,28.80
2022-07-30T12:20:19.680Z,28.80
2022-07-30T12:22:47.250Z,28.80
2022-07-30T12:25:14.858Z,28.90
2022-07-30T12:27:50.448Z,28.80
2022-07-30T12:30:20.026Z,28.90
2022-07-30T12:32:48.086Z,28.80
2022-07-30T12:35:15.242Z,28.80
2022-07-30T12:38:03.491Z,28.80
2022-07-30T12:40:30.730Z,28.80
2022-07-30T12:42:57.688Z,28.80
2022-07-30T12:45:52.053Z,28.80
2022-07-30T12:48:19.789Z,28.80
2022-07-30T12:50:49.076Z,28.70
2022-07-30T12:53:16.130Z,28.70
2022-07-30T12:55:43.363Z,28.80
2022-07-30T12:58:10.627Z,28.80
2022-07-30T13:00:52.382Z,28.90
2022-07-30T13:03:24.440Z,29.10
2022-07-30T13:05:55.727Z,29.20
2022-07-30T13:08:45.317Z,29.30
2022-07-30T13:11:12.683Z,29.40
2022-07-30T13:13:39.944Z,29.50
2022-07-30T13:16:07.837Z,29.40
2022-07-30T13:18:36.051Z,29.50
2022-07-30T13:21:04.839Z,29.50
2022-07-30T13:23:32.391Z,29.60
2022-07-30T13:25:59.480Z,29.70
2022-07-30T13:28:26.523Z,29.90
2022-07-30T13:30:53.848Z,30.10
2022-07-30T13:33:20.920Z,30.20
2022-07-30T13:35:48.277Z,30.50
2022-07-30T13:38:15.922Z,30.60
2022-07-30T13:40:42.880Z,30.60
2022-07-30T13:43:10.102Z,30.60
2022-07-30T13:45:37.356Z,30.60
2022-07-30T13:48:04.824Z,30.60
2022-07-30T13:50:31.902Z,30.80
2022-07-30T13:53:01.932Z,31.00
2022-07-30T13:55:30.298Z,31.00
2022-07-30T13:57:57.708Z,31.00
2022-07-30T14:00:24.944Z,30.80
2022-07-30T14:02:52.070Z,30.70
2022-07-30T14:05:19.057Z,30.70
2022-07-30T14:07:46.205Z,30.80
2022-07-30T14:10:13.342Z,30.80
2022-07-30T14:12:40.412Z,30.80
2022-07-30T14:15:09.624Z,30.60
2022-07-30T14:17:36.679Z,30.30
2022-07-30T14:20:04.774Z,30.20
2022-07-30T14:22:31.772Z,30.20
2022-07-30T14:25:00.401Z,30.20
2022-07-30T14:27:27.390Z,30.30
2022-07-30T14:29:54.366Z,30.30
2022-07-30T14:32:21.545Z,30.20
2022-07-30T14:34:50.914Z,30.00
2022-07-30T14:37:20.960Z,30.00
2022-07-30T14:39:47.947Z,29.90
2022-07-30T14:42:15.030Z,29.90
2022-07-30T14:44:42.012Z,30.00
2022-07-30T14:47:10.050Z,30.10
2022-07-30T14:49:37.055Z,30.20
2022-07-30T14:52:04.135Z,30.10
2022-07-30T14:54:33.793Z,30.10
2022-07-30T14:57:01.246Z,30.30
2022-07-30T14:59:28.538Z,30.40
2022-07-30T15:01:56.537Z,30.50
2022-07-30T15:04:23.743Z,30.50
2022-07-30T15:06:50.891Z,30.40
2022-07-30T15:09:18.327Z,30.40
2022-07-30T15:12:07.853Z,30.40
2022-07-30T15:14:32.396Z,30.20
2022-07-30T15:17:04.217Z,30.10
2022-07-30T15:19:32.254Z,30.10
2022-07-30T15:22:02.395Z,30.00
2022-07-30T15:24:30.580Z,30.00
2022-07-30T15:26:57.582Z,29.90
2022-07-30T15:29:27.326Z,29.90
2022-07-30T15:31:54.545Z,29.80
2022-07-30T15:34:21.591Z,29.70
2022-07-30T15:36:49.025Z,29.70
2022-07-30T15:39:16.093Z,29.60
2022-07-30T15:41:43.150Z,29.60
2022-07-30T15:44:10.321Z,29.50
2022-07-30T15:46:37.316Z,29.40
2022-07-30T15:49:04.624Z,29.30
2022-07-30T15:51:32.756Z,29.30
2022-07-30T15:53:59.906Z,29.30
2022-07-30T15:56:28.403Z,29.20
2022-07-30T15:58:55.995Z,29.20
2022-07-30T16:01:23.072Z,29.10
2022-07-30T16:03:50.148Z,29.10
2022-07-30T16:06:17.193Z,29.00
2022-07-30T16:08:44.219Z,28.90
2022-07-30T16:11:11.274Z,28.90
2022-07-30T16:13:38.569Z,28.90
2022-07-30T16:16:05.714Z,28.90
2022-07-30T16:18:32.664Z,28.80
2022-07-30T16:21:01.479Z,28.70
2022-07-30T16:23:36.363Z,28.80
2022-07-30T16:26:04.080Z,28.80
2022-07-30T16:28:31.374Z,28.80
2022-07-30T16:30:58.799Z,28.70
2022-07-30T16:33:25.787Z,28.70
2022-07-30T16:35:52.885Z,28.70
2022-07-30T16:38:20.508Z,28.60
2022-07-30T16:40:47.872Z,28.60
2022-07-30T16:43:16.252Z,28.60
2022-07-30T16:45:46.650Z,28.50
2022-07-30T16:48:14.032Z,28.40
2022-07-30T16:50:42.172Z,28.40
2022-07-30T16:53:14.026Z,28.40
2022-07-30T16:55:42.833Z,28.40
2022-07-30T16:58:10.988Z,28.30
2022-07-30T17:00:38.831Z,28.30
2022-07-30T17:03:05.827Z,28.20
2022-07-30T17:05:32.814Z,28.30
2022-07-30T17:07:59.965Z,28.20
2022-07-30T17:10:27.300Z,28.10
2022-07-30T17:12:56.946Z,28.10
2022-07-30T17:15:31.983Z,28.10
2022-07-30T17:18:00.546Z,28.00
2022-07-30T17:20:27.926Z,28.00
2022-07-30T17:22:56.314Z,27.90
2022-07-30T17:25:27.577Z,27.80
2022-07-30T17:27:58.931Z,27.80
2022-07-30T17:30:27.414Z,27.80
2022-07-30T17:32:54.849Z,27.90
2022-07-30T17:35:22.128Z,27.90
2022-07-30T17:37:49.095Z,27.90
2022-07-30T17:40:30.669Z,28.00
2022-07-30T17:43:07.763Z,28.00
2022-07-30T17:45:36.073Z,28.00
2022-07-30T17:48:04.246Z,28.00
2022-07-30T17:50:32.707Z,27.90
2022-07-30T17:53:00.282Z,27.90
2022-07-30T17:55:31.530Z,27.80
2022-07-30T17:57:58.507Z,27.70
2022-07-30T18:00:25.525Z,27.70
2022-07-30T18:02:52.547Z,27.60
2022-07-30T18:05:19.713Z,27.60
2022-07-30T18:07:46.968Z,27.50
2022-07-30T18:10:14.147Z,27.50
2022-07-30T18:12:48.516Z,27.50
2022-07-30T18:15:15.942Z,27.40
2022-07-30T18:17:42.934Z,27.40
2022-07-30T18:20:10.327Z,27.30
2022-07-30T18:22:37.686Z,27.30
2022-07-30T18:25:08.129Z,27.20
2022-07-30T18:27:45.236Z,27.20
2022-07-30T18:30:12.416Z,27.10
2022-07-30T18:32:39.390Z,27.00
2022-07-30T18:35:10.823Z,26.90
2022-07-30T18:37:41.627Z,26.90
2022-07-30T18:40:10.556Z,26.80
2022-07-30T18:42:37.675Z,26.70
2022-07-30T18:45:05.270Z,26.70
2022-07-30T18:47:32.234Z,26.60
2022-07-30T18:49:59.204Z,26.40
2022-07-30T18:52:26.710Z,26.30
2022-07-30T18:54:53.651Z,26.30
2022-07-30T18:57:20.957Z,26.30
2022-07-30T18:59:48.001Z,26.20
2022-07-30T19:02:15.181Z,26.10
2022-07-30T19:04:42.166Z,26.10
2022-07-30T19:07:09.273Z,26.10
2022-07-30T19:09:36.511Z,26.10
2022-07-30T19:12:04.516Z,26.00
2022-07-30T19:14:31.947Z,25.80
2022-07-30T19:16:59.265Z,25.70
2022-07-30T19:19:26.846Z,25.70
2022-07-30T19:21:53.893Z,25.70
2022-07-30T19:24:20.881Z,25.60
2022-07-30T19:26:47.927Z,25.50
2022-07-30T19:29:14.985Z,25.40
2022-07-30T19:31:42.201Z,25.30
2022-07-30T19:34:11.014Z,25.20
2022-07-30T19:36:38.242Z,25.10
2022-07-30T19:39:07.431Z,25.20
2022-07-30T19:41:40.999Z,25.10
2022-07-30T19:44:12.177Z,25.10
2022-07-30T19:49:29.717Z,25.10
2022-07-30T19:52:10.054Z,25.00
2022-07-30T19:54:44.067Z,25.00
2022-07-30T19:57:11.034Z,24.90
2022-07-30T19:59:45.230Z,24.90
2022-07-30T20:02:22.768Z,24.80
2022-07-30T20:04:49.988Z,24.80
2022-07-30T20:07:17.184Z,24.80
2022-07-30T20:09:45.026Z,24.80
2022-07-30T20:12:15.556Z,24.80
2022-07-30T20:14:44.249Z,24.80
2022-07-30T20:17:11.254Z,24.70
2022-07-30T20:19:38.346Z,24.60
2022-07-30T20:22:14.716Z,24.50
2022-07-30T20:24:42.460Z,24.50
2022-07-30T20:27:35.510Z,24.40
2022-07-30T20:29:56.544Z,24.40
2022-07-30T20:32:24.783Z,24.30
2022-07-30T20:34:52.372Z,24.30
2022-07-30T20:37:22.595Z,24.30
2022-07-30T20:39:50.229Z,24.20
2022-07-30T20:42:17.329Z,24.20
2022-07-30T20:44:50.623Z,24.20
2022-07-30T20:47:34.699Z,24.10
2022-07-30T20:50:10.392Z,24.10
2022-07-30T20:52:40.592Z,24.10
2022-07-30T20:55:09.696Z,24.00
2022-07-30T20:57:56.938Z,24.00
2022-07-30T21:00:28.307Z,23.90
2022-07-30T21:02:55.341Z,23.90
2022-07-30T21:05:22.399Z,23.90
2022-07-30T21:07:54.218Z,23.80
2022-07-30T21:10:23.578Z,23.80
2022-07-30T21:12:52.983Z,23.80
2022-07-30T21:15:24.530Z,23.70
2022-07-30T21:17:53.444Z,23.70
2022-07-30T21:20:27.938Z,23.70
2022-07-30T21:22:55.971Z,23.60
2022-07-30T21:25:23.362Z,23.60
2022-07-30T21:27:50.587Z,23.60
2022-07-30T21:30:17.619Z,23.60
2022-07-30T21:32:44.573Z,23.50
2022-07-30T21:35:11.916Z,23.50
2022-07-30T21:37:42.852Z,23.50
2022-07-30T21:40:10.640Z,23.50
2022-07-30T21:42:48.248Z,23.50
2022-07-30T21:45:16.149Z,23.50
2022-07-30T21:47:47.742Z,23.50
2022-07-30T21:50:16.209Z,23.40
2022-07-30T21:52:44.077Z,23.40
2022-07-30T21:55:13.260Z,23.40
2022-07-30T21:57:42.144Z,23.40
2022-07-30T22:00:15.459Z,23.30
2022-07-30T22:02:52.991Z,23.20
2022-07-30T22:05:21.667Z,23.20
2022-07-30T22:07:50.625Z,23.10
2022-07-30T22:10:21.681Z,23.10
2022-07-30T22:12:48.909Z,23.10
2022-07-30T22:15:18.016Z,23.00
2022-07-30T22:17:58.315Z,23.00
2022-07-30T22:20:28.976Z,23.00
2022-07-30T22:22:57.450Z,22.90
2022-07-30T22:25:43.891Z,22.90
2022-07-30T22:28:13.490Z,22.90
2022-07-30T22:30:40.952Z,22.80
2022-07-30T22:33:15.988Z,22.80
2022-07-30T22:35:46.771Z,22.80
2022-07-30T22:41:04.541Z,22.70
2022-07-30T22:43:33.269Z,22.70
2022-07-30T22:46:14.731Z,22.70
2022-07-30T22:48:42.091Z,22.70
2022-07-30T22:51:11.929Z,22.70
2022-07-30T22:54:10.511Z,22.70
2022-07-30T22:56:26.346Z,22.70
2022-07-30T22:58:53.331Z,22.70
2022-07-30T23:01:21.173Z,22.60
2022-07-30T23:03:50.148Z,22.60
2022-07-30T23:06:17.220Z,22.60
2022-07-30T23:08:47.765Z,22.60
2022-07-30T23:11:14.873Z,22.60
2022-07-30T23:12:16.902Z,25.10
2022-07-30T23:12:31.169Z,22.80
2022-07-30T23:13:41.926Z,22.60
2022-07-30T23:16:09.178Z,22.60
2022-07-30T23:18:36.249Z,22.60
2022-07-30T23:21:04.833Z,22.50
2022-07-30T23:23:35.792Z,22.60
2022-07-30T23:26:04.878Z,22.50
2022-07-30T23:28:31.982Z,22.40
2022-07-30T23:30:59.377Z,22.30
2022-07-30T23:33:26.507Z,22.20
2022-07-30T23:35:53.553Z,22.00
2022-07-30T23:38:20.584Z,21.90
2022-07-30T23:40:47.657Z,21.80
2022-07-30T23:43:15.607Z,21.80
2022-07-30T23:45:42.942Z,21.80
2022-07-30T23:48:10.438Z,22.00
2022-07-30T23:50:37.380Z,22.00
2022-07-30T23:53:05.234Z,22.10
2022-07-30T23:55:32.678Z,22.10
2022-07-30T23:58:00.486Z,22.10
